sensor_id;sensor_type;location;lat;lon;timestamp;pressure;altitude;pressure_sealevel;temperature;humidity
75775;BME280;64505;51.458;7.556;2023-05-25T00:00:28;100632.84;;;7.63;90.42
75775;BME280;64505;51.458;7.556;2023-05-25T00:02:30;100636.66;;;7.60;89.37
75775;BME280;64505;51.458;7.556;2023-05-25T00:04:34;100642.94;;;7.59;87.76
75775;BME280;64505;51.458;7.556;2023-05-25T00:06:35;100646.03;;;7.63;88.68
75775;BME280;64505;51.458;7.556;2023-05-25T00:08:41;100647.09;;;7.68;89.01
75775;BME280;64505;51.458;7.556;2023-05-25T00:10:42;100645.38;;;7.75;88.04
75775;BME280;64505;51.458;7.556;2023-05-25T00:12:44;100655.00;;;7.83;87.73
75775;BME280;64505;51.458;7.556;2023-05-25T00:14:46;100644.09;;;7.86;87.75
75775;BME280;64505;51.458;7.556;2023-05-25T00:16:47;100647.00;;;7.91;88.30
75775;BME280;64505;51.458;7.556;2023-05-25T00:18:49;100642.56;;;7.91;90.09
75775;BME280;64505;51.458;7.556;2023-05-25T00:20:53;100643.66;;;7.97;89.18
75775;BME280;64505;51.458;7.556;2023-05-25T00:22:55;100642.28;;;8.01;88.39
75775;BME280;64505;51.458;7.556;2023-05-25T00:24:56;100643.56;;;8.05;88.19
75775;BME280;64505;51.458;7.556;2023-05-25T00:26:58;100638.72;;;8.09;88.89
75775;BME280;64505;51.458;7.556;2023-05-25T00:28:59;100641.19;;;8.10;88.58
75775;BME280;64505;51.458;7.556;2023-05-25T00:31:01;100637.16;;;8.14;88.65
75775;BME280;64505;51.458;7.556;2023-05-25T00:33:03;100638.00;;;8.15;89.00
75775;BME280;64505;51.458;7.556;2023-05-25T00:35:05;100640.44;;;8.16;89.23
75775;BME280;64505;51.458;7.556;2023-05-25T00:37:07;100637.81;;;8.16;89.59
75775;BME280;64505;51.458;7.556;2023-05-25T00:39:09;100638.81;;;8.15;88.88
75775;BME280;64505;51.458;7.556;2023-05-25T00:41:16;100635.34;;;8.15;89.07
75775;BME280;64505;51.458;7.556;2023-05-25T00:43:17;100630.91;;;8.15;89.22
75775;BME280;64505;51.458;7.556;2023-05-25T00:45:19;100627.66;;;8.13;90.00
75775;BME280;64505;51.458;7.556;2023-05-25T00:47:21;100629.84;;;8.10;88.82
75775;BME280;64505;51.458;7.556;2023-05-25T00:49:23;100631.00;;;8.07;89.57
75775;BME280;64505;51.458;7.556;2023-05-25T00:51:26;100628.94;;;8.03;90.91
75775;BME280;64505;51.458;7.556;2023-05-25T00:53:27;100629.47;;;7.98;90.39
75775;BME280;64505;51.458;7.556;2023-05-25T00:55:32;100623.13;;;7.92;89.74
75775;BME280;64505;51.458;7.556;2023-05-25T00:57:39;100633.19;;;7.89;89.58
75775;BME280;64505;51.458;7.556;2023-05-25T00:59:50;100632.75;;;7.85;89.26
75775;BME280;64505;51.458;7.556;2023-05-25T01:01:55;100642.00;;;7.81;89.63
75775;BME280;64505;51.458;7.556;2023-05-25T01:03:58;100629.22;;;7.78;88.48
75775;BME280;64505;51.458;7.556;2023-05-25T01:06:01;100634.03;;;7.75;90.41
75775;BME280;64505;51.458;7.556;2023-05-25T01:08:05;100628.97;;;7.73;90.73
75775;BME280;64505;51.458;7.556;2023-05-25T01:10:10;100628.66;;;7.68;89.21
75775;BME280;64505;51.458;7.556;2023-05-25T01:12:16;100633.66;;;7.63;88.42
75775;BME280;64505;51.458;7.556;2023-05-25T01:14:19;100638.28;;;7.61;89.45
75775;BME280;64505;51.458;7.556;2023-05-25T01:16:25;100636.84;;;7.59;89.64
75775;BME280;64505;51.458;7.556;2023-05-25T01:18:27;100636.38;;;7.55;88.83
75775;BME280;64505;51.458;7.556;2023-05-25T01:20:29;100633.09;;;7.53;89.02
75775;BME280;64505;51.458;7.556;2023-05-25T01:22:34;100634.28;;;7.51;89.08
75775;BME280;64505;51.458;7.556;2023-05-25T01:24:50;100633.22;;;7.45;88.92
75775;BME280;64505;51.458;7.556;2023-05-25T01:27:00;100639.00;;;7.40;89.29
75775;BME280;64505;51.458;7.556;2023-05-25T01:29:04;100640.16;;;7.38;88.11
75775;BME280;64505;51.458;7.556;2023-05-25T01:31:07;100631.81;;;7.34;89.47
75775;BME280;64505;51.458;7.556;2023-05-25T01:33:09;100640.72;;;7.33;88.14
75775;BME280;64505;51.458;7.556;2023-05-25T01:35:12;100634.16;;;7.29;89.56
75775;BME280;64505;51.458;7.556;2023-05-25T01:37:17;100632.88;;;7.25;89.07
75775;BME280;64505;51.458;7.556;2023-05-25T01:39:20;100630.25;;;7.25;89.71
75775;BME280;64505;51.458;7.556;2023-05-25T01:41:22;100639.97;;;7.25;90.00
75775;BME280;64505;51.458;7.556;2023-05-25T01:43:24;100644.59;;;7.23;90.17
75775;BME280;64505;51.458;7.556;2023-05-25T01:45:26;100636.41;;;7.18;89.13
75775;BME280;64505;51.458;7.556;2023-05-25T01:48:20;100642.84;;;7.15;89.81
75775;BME280;64505;51.458;7.556;2023-05-25T01:52:35;100645.53;;;7.07;89.80
75775;BME280;64505;51.458;7.556;2023-05-25T01:55:27;100642.28;;;7.05;88.97
75775;BME280;64505;51.458;7.556;2023-05-25T01:57:09;100634.72;;;7.02;88.52
75775;BME280;64505;51.458;7.556;2023-05-25T01:59:15;100631.81;;;6.97;88.06
75775;BME280;64505;51.458;7.556;2023-05-25T02:01:19;100625.75;;;6.97;89.05
75775;BME280;64505;51.458;7.556;2023-05-25T02:03:22;100633.78;;;6.95;88.62
75775;BME280;64505;51.458;7.556;2023-05-25T02:05:23;100624.63;;;6.91;88.40
75775;BME280;64505;51.458;7.556;2023-05-25T02:07:25;100630.25;;;6.88;89.91
75775;BME280;64505;51.458;7.556;2023-05-25T02:09:27;100633.22;;;6.85;90.34
75775;BME280;64505;51.458;7.556;2023-05-25T02:11:28;100637.03;;;6.82;90.21
75775;BME280;64505;51.458;7.556;2023-05-25T02:13:30;100632.94;;;6.80;90.20
75775;BME280;64505;51.458;7.556;2023-05-25T02:15:32;100636.91;;;6.76;89.96
75775;BME280;64505;51.458;7.556;2023-05-25T02:17:34;100639.53;;;6.76;91.20
75775;BME280;64505;51.458;7.556;2023-05-25T02:19:37;100645.94;;;6.73;90.00
75775;BME280;64505;51.458;7.556;2023-05-25T02:21:40;100638.63;;;6.69;90.12
75775;BME280;64505;51.458;7.556;2023-05-25T02:23:42;100638.78;;;6.67;89.08
75775;BME280;64505;51.458;7.556;2023-05-25T02:25:44;100632.41;;;6.62;88.30
75775;BME280;64505;51.458;7.556;2023-05-25T02:27:47;100638.00;;;6.59;87.92
75775;BME280;64505;51.458;7.556;2023-05-25T02:29:48;100646.91;;;6.58;88.73
75775;BME280;64505;51.458;7.556;2023-05-25T02:31:50;100637.72;;;6.54;89.85
75775;BME280;64505;51.458;7.556;2023-05-25T02:33:51;100637.06;;;6.52;88.70
75775;BME280;64505;51.458;7.556;2023-05-25T02:35:53;100638.06;;;6.51;90.04
75775;BME280;64505;51.458;7.556;2023-05-25T02:37:55;100645.28;;;6.49;90.17
75775;BME280;64505;51.458;7.556;2023-05-25T02:39:57;100647.28;;;6.47;89.36
75775;BME280;64505;51.458;7.556;2023-05-25T02:41:58;100649.09;;;6.46;90.00
75775;BME280;64505;51.458;7.556;2023-05-25T02:44:00;100650.06;;;6.45;90.46
75775;BME280;64505;51.458;7.556;2023-05-25T02:46:01;100661.41;;;6.46;90.47
75775;BME280;64505;51.458;7.556;2023-05-25T02:48:03;100656.31;;;6.44;89.95
75775;BME280;64505;51.458;7.556;2023-05-25T02:50:05;100655.84;;;6.40;91.21
75775;BME280;64505;51.458;7.556;2023-05-25T02:52:07;100655.69;;;6.42;92.45
75775;BME280;64505;51.458;7.556;2023-05-25T02:54:08;100653.22;;;6.40;91.52
75775;BME280;64505;51.458;7.556;2023-05-25T02:56:10;100651.75;;;6.38;90.01
75775;BME280;64505;51.458;7.556;2023-05-25T02:58:12;100648.50;;;6.36;91.17
75775;BME280;64505;51.458;7.556;2023-05-25T03:00:14;100655.56;;;6.35;90.82
75775;BME280;64505;51.458;7.556;2023-05-25T03:02:15;100652.94;;;6.35;91.22
75775;BME280;64505;51.458;7.556;2023-05-25T03:04:18;100660.34;;;6.32;91.07
75775;BME280;64505;51.458;7.556;2023-05-25T03:06:20;100665.59;;;6.32;91.55
75775;BME280;64505;51.458;7.556;2023-05-25T03:08:23;100664.44;;;6.26;90.76
75775;BME280;64505;51.458;7.556;2023-05-25T03:10:24;100664.78;;;6.23;90.49
75775;BME280;64505;51.458;7.556;2023-05-25T03:12:26;100664.78;;;6.23;90.04
75775;BME280;64505;51.458;7.556;2023-05-25T03:14:28;100662.16;;;6.23;90.28
75775;BME280;64505;51.458;7.556;2023-05-25T03:16:29;100669.41;;;6.21;90.24
75775;BME280;64505;51.458;7.556;2023-05-25T03:18:31;100668.59;;;6.21;90.57
75775;BME280;64505;51.458;7.556;2023-05-25T03:20:33;100667.94;;;6.19;89.83
75775;BME280;64505;51.458;7.556;2023-05-25T03:22:35;100668.75;;;6.19;91.22
75775;BME280;64505;51.458;7.556;2023-05-25T03:24:37;100663.69;;;6.18;91.26
75775;BME280;64505;51.458;7.556;2023-05-25T03:26:42;100661.22;;;6.16;91.00
75775;BME280;64505;51.458;7.556;2023-05-25T03:28:43;100660.41;;;6.16;91.85
75775;BME280;64505;51.458;7.556;2023-05-25T03:30:45;100671.09;;;6.14;92.17
75775;BME280;64505;51.458;7.556;2023-05-25T03:32:46;100672.69;;;6.15;91.96
75775;BME280;64505;51.458;7.556;2023-05-25T03:34:48;100674.53;;;6.15;91.31
75775;BME280;64505;51.458;7.556;2023-05-25T03:36:50;100682.72;;;6.12;91.10
75775;BME280;64505;51.458;7.556;2023-05-25T03:38:52;100686.03;;;6.14;90.10
75775;BME280;64505;51.458;7.556;2023-05-25T03:40:55;100692.09;;;6.14;89.96
75775;BME280;64505;51.458;7.556;2023-05-25T03:42:56;100680.94;;;6.12;90.64
75775;BME280;64505;51.458;7.556;2023-05-25T03:44:58;100686.03;;;6.14;90.53
75775;BME280;64505;51.458;7.556;2023-05-25T03:46:59;100689.00;;;6.11;90.63
75775;BME280;64505;51.458;7.556;2023-05-25T03:49:01;100687.66;;;6.15;91.78
75775;BME280;64505;51.458;7.556;2023-05-25T03:51:03;100685.84;;;6.15;92.29
75775;BME280;64505;51.458;7.556;2023-05-25T03:53:04;100684.22;;;6.14;91.23
75775;BME280;64505;51.458;7.556;2023-05-25T03:55:06;100689.47;;;6.14;91.39
75775;BME280;64505;51.458;7.556;2023-05-25T03:57:08;100681.59;;;6.14;90.34
75775;BME280;64505;51.458;7.556;2023-05-25T03:59:10;100684.84;;;6.16;90.42
75775;BME280;64505;51.458;7.556;2023-05-25T04:01:11;100677.63;;;6.18;90.70
75775;BME280;64505;51.458;7.556;2023-05-25T04:03:14;100680.41;;;6.17;89.96
75775;BME280;64505;51.458;7.556;2023-05-25T04:05:16;100686.16;;;6.20;90.10
75775;BME280;64505;51.458;7.556;2023-05-25T04:07:18;100686.00;;;6.22;90.08
75775;BME280;64505;51.458;7.556;2023-05-25T04:09:20;100691.41;;;6.20;90.24
75775;BME280;64505;51.458;7.556;2023-05-25T04:11:22;100688.63;;;6.22;90.85
75775;BME280;64505;51.458;7.556;2023-05-25T04:13:25;100687.44;;;6.24;89.34
75775;BME280;64505;51.458;7.556;2023-05-25T04:15:27;100697.78;;;6.26;90.24
75775;BME280;64505;51.458;7.556;2023-05-25T04:17:28;100700.88;;;6.29;90.08
75775;BME280;64505;51.458;7.556;2023-05-25T04:19:31;100696.28;;;6.31;91.37
75775;BME280;64505;51.458;7.556;2023-05-25T04:21:32;100703.81;;;6.34;91.92
75775;BME280;64505;51.458;7.556;2023-05-25T04:23:34;100708.91;;;6.36;91.56
75775;BME280;64505;51.458;7.556;2023-05-25T04:25:36;100707.75;;;6.38;91.08
75775;BME280;64505;51.458;7.556;2023-05-25T04:27:37;100715.59;;;6.47;91.47
75775;BME280;64505;51.458;7.556;2023-05-25T04:29:40;100715.25;;;6.50;91.82
75775;BME280;64505;51.458;7.556;2023-05-25T04:31:42;100721.31;;;6.50;91.21
75775;BME280;64505;51.458;7.556;2023-05-25T04:33:45;100729.69;;;6.54;91.08
75775;BME280;64505;51.458;7.556;2023-05-25T04:35:47;100723.09;;;6.58;92.00
75775;BME280;64505;51.458;7.556;2023-05-25T04:37:51;100729.97;;;6.59;91.81
75775;BME280;64505;51.458;7.556;2023-05-25T04:39:54;100731.28;;;6.63;92.20
75775;BME280;64505;51.458;7.556;2023-05-25T04:41:58;100727.16;;;6.68;91.59
75775;BME280;64505;51.458;7.556;2023-05-25T04:44:02;100729.56;;;6.78;91.28
75775;BME280;64505;51.458;7.556;2023-05-25T04:46:11;100720.63;;;6.87;90.00
75775;BME280;64505;51.458;7.556;2023-05-25T04:48:14;100730.09;;;6.96;89.77
75775;BME280;64505;51.458;7.556;2023-05-25T04:50:15;100732.69;;;7.04;89.33
75775;BME280;64505;51.458;7.556;2023-05-25T04:52:17;100734.09;;;7.15;89.90
75775;BME280;64505;51.458;7.556;2023-05-25T04:54:19;100726.78;;;7.25;91.24
75775;BME280;64505;51.458;7.556;2023-05-25T04:56:21;100724.91;;;7.33;91.69
75775;BME280;64505;51.458;7.556;2023-05-25T04:58:26;100731.38;;;7.46;92.03
75775;BME280;64505;51.458;7.556;2023-05-25T05:00:30;100732.13;;;7.54;91.28
75775;BME280;64505;51.458;7.556;2023-05-25T05:02:32;100729.22;;;7.64;91.66
75775;BME280;64505;51.458;7.556;2023-05-25T05:04:34;100737.25;;;7.70;90.82
75775;BME280;64505;51.458;7.556;2023-05-25T05:06:38;100734.53;;;7.78;90.72
75775;BME280;64505;51.458;7.556;2023-05-25T05:08:39;100733.16;;;7.82;91.72
75775;BME280;64505;51.458;7.556;2023-05-25T05:10:42;100740.72;;;7.85;90.25
75775;BME280;64505;51.458;7.556;2023-05-25T05:12:44;100744.44;;;7.91;91.37
75775;BME280;64505;51.458;7.556;2023-05-25T05:14:46;100753.44;;;7.97;91.00
75775;BME280;64505;51.458;7.556;2023-05-25T05:16:47;100745.38;;;7.98;90.94
75775;BME280;64505;51.458;7.556;2023-05-25T05:18:49;100751.72;;;8.04;91.22
75775;BME280;64505;51.458;7.556;2023-05-25T05:20:51;100761.56;;;8.10;90.41
75775;BME280;64505;51.458;7.556;2023-05-25T05:22:52;100764.63;;;8.13;89.71
75775;BME280;64505;51.458;7.556;2023-05-25T05:24:54;100763.00;;;8.12;88.69
75775;BME280;64505;51.458;7.556;2023-05-25T05:26:56;100765.72;;;8.19;88.44
75775;BME280;64505;51.458;7.556;2023-05-25T05:28:59;100764.47;;;8.29;89.03
75775;BME280;64505;51.458;7.556;2023-05-25T05:31:01;100768.09;;;8.28;88.98
75775;BME280;64505;51.458;7.556;2023-05-25T05:33:03;100759.50;;;8.34;88.37
75775;BME280;64505;51.458;7.556;2023-05-25T05:35:05;100764.69;;;8.43;88.87
75775;BME280;64505;51.458;7.556;2023-05-25T05:37:06;100768.22;;;8.50;89.26
75775;BME280;64505;51.458;7.556;2023-05-25T05:39:08;100777.03;;;8.57;88.56
75775;BME280;64505;51.458;7.556;2023-05-25T05:41:10;100779.19;;;8.68;88.58
75775;BME280;64505;51.458;7.556;2023-05-25T05:43:14;100788.69;;;8.83;88.35
75775;BME280;64505;51.458;7.556;2023-05-25T05:45:16;100785.78;;;8.93;88.13
75775;BME280;64505;51.458;7.556;2023-05-25T05:47:18;100784.09;;;9.07;88.57
75775;BME280;64505;51.458;7.556;2023-05-25T05:49:19;100785.16;;;9.12;87.50
75775;BME280;64505;51.458;7.556;2023-05-25T05:51:21;100792.78;;;9.22;87.40
75775;BME280;64505;51.458;7.556;2023-05-25T05:53:22;100794.75;;;9.34;87.86
75775;BME280;64505;51.458;7.556;2023-05-25T05:55:24;100794.41;;;9.44;88.82
75775;BME280;64505;51.458;7.556;2023-05-25T05:57:26;100797.56;;;9.54;87.35
75775;BME280;64505;51.458;7.556;2023-05-25T05:59:28;100798.69;;;9.66;88.43
75775;BME280;64505;51.458;7.556;2023-05-25T06:01:30;100810.34;;;9.72;88.03
75775;BME280;64505;51.458;7.556;2023-05-25T06:03:33;100809.38;;;9.79;86.98
75775;BME280;64505;51.458;7.556;2023-05-25T06:05:35;100810.69;;;9.90;88.81
75775;BME280;64505;51.458;7.556;2023-05-25T06:07:37;100806.50;;;10.02;88.08
75775;BME280;64505;51.458;7.556;2023-05-25T06:09:38;100810.28;;;10.14;88.51
75775;BME280;64505;51.458;7.556;2023-05-25T06:11:40;100802.78;;;10.18;88.35
75775;BME280;64505;51.458;7.556;2023-05-25T06:13:42;100804.06;;;10.28;87.29
75775;BME280;64505;51.458;7.556;2023-05-25T06:15:46;100796.72;;;10.24;87.22
75775;BME280;64505;51.458;7.556;2023-05-25T06:17:48;100806.13;;;10.33;85.29
75775;BME280;64505;51.458;7.556;2023-05-25T06:19:49;100807.25;;;10.45;85.26
75775;BME280;64505;51.458;7.556;2023-05-25T06:21:51;100808.03;;;10.46;86.08
75775;BME280;64505;51.458;7.556;2023-05-25T06:23:53;100813.25;;;10.67;86.89
75775;BME280;64505;51.458;7.556;2023-05-25T06:25:55;100812.63;;;10.71;86.11
75775;BME280;64505;51.458;7.556;2023-05-25T06:27:56;100811.91;;;10.84;85.43
75775;BME280;64505;51.458;7.556;2023-05-25T06:29:58;100807.22;;;10.93;84.11
75775;BME280;64505;51.458;7.556;2023-05-25T06:32:00;100815.63;;;11.03;83.61
75775;BME280;64505;51.458;7.556;2023-05-25T06:34:01;100812.56;;;10.99;84.59
75775;BME280;64505;51.458;7.556;2023-05-25T06:36:03;100807.50;;;11.11;83.59
75775;BME280;64505;51.458;7.556;2023-05-25T06:38:05;100816.91;;;11.13;82.74
75775;BME280;64505;51.458;7.556;2023-05-25T06:40:07;100811.19;;;11.10;83.31
75775;BME280;64505;51.458;7.556;2023-05-25T06:42:10;100815.41;;;11.04;82.64
75775;BME280;64505;51.458;7.556;2023-05-25T06:44:12;100814.81;;;10.96;82.33
75775;BME280;64505;51.458;7.556;2023-05-25T06:46:13;100823.31;;;10.91;83.42
75775;BME280;64505;51.458;7.556;2023-05-25T06:48:19;100812.16;;;11.02;83.28
75775;BME280;64505;51.458;7.556;2023-05-25T06:50:20;100829.88;;;11.02;82.90
75775;BME280;64505;51.458;7.556;2023-05-25T06:52:22;100817.66;;;11.01;82.62
75775;BME280;64505;51.458;7.556;2023-05-25T06:54:24;100822.59;;;11.17;82.04
75775;BME280;64505;51.458;7.556;2023-05-25T06:56:27;100823.63;;;11.29;81.57
75775;BME280;64505;51.458;7.556;2023-05-25T06:58:28;100828.75;;;11.37;80.65
75775;BME280;64505;51.458;7.556;2023-05-25T07:00:30;100838.13;;;11.40;80.34
75775;BME280;64505;51.458;7.556;2023-05-25T07:02:33;100839.91;;;11.19;81.76
75775;BME280;64505;51.458;7.556;2023-05-25T07:04:34;100835.94;;;11.50;81.10
75775;BME280;64505;51.458;7.556;2023-05-25T07:06:36;100835.53;;;11.53;81.38
75775;BME280;64505;51.458;7.556;2023-05-25T07:08:38;100835.53;;;11.59;79.99
75775;BME280;64505;51.458;7.556;2023-05-25T07:10:39;100837.63;;;11.77;79.46
75775;BME280;64505;51.458;7.556;2023-05-25T07:12:41;100842.84;;;11.51;79.25
75775;BME280;64505;51.458;7.556;2023-05-25T07:14:42;100844.50;;;11.65;79.08
75775;BME280;64505;51.458;7.556;2023-05-25T07:16:48;100845.31;;;11.65;78.89
75775;BME280;64505;51.458;7.556;2023-05-25T07:18:50;100845.72;;;11.56;79.99
75775;BME280;64505;51.458;7.556;2023-05-25T07:20:51;100844.56;;;11.71;79.77
75775;BME280;64505;51.458;7.556;2023-05-25T07:22:53;100840.47;;;11.89;80.03
75775;BME280;64505;51.458;7.556;2023-05-25T07:24:55;100847.41;;;11.96;78.21
75775;BME280;64505;51.458;7.556;2023-05-25T07:26:57;100845.16;;;12.06;77.53
75775;BME280;64505;51.458;7.556;2023-05-25T07:28:59;100851.47;;;12.05;77.84
75775;BME280;64505;51.458;7.556;2023-05-25T07:31:00;100845.38;;;12.11;77.66
75775;BME280;64505;51.458;7.556;2023-05-25T07:33:02;100846.53;;;12.48;77.18
75775;BME280;64505;51.458;7.556;2023-05-25T07:35:04;100844.69;;;12.62;76.47
75775;BME280;64505;51.458;7.556;2023-05-25T07:37:06;100859.63;;;12.43;74.59
75775;BME280;64505;51.458;7.556;2023-05-25T07:39:08;100850.66;;;12.44;75.83
75775;BME280;64505;51.458;7.556;2023-05-25T07:41:11;100858.75;;;12.75;75.85
75775;BME280;64505;51.458;7.556;2023-05-25T07:43:13;100858.75;;;12.69;75.17
75775;BME280;64505;51.458;7.556;2023-05-25T07:45:15;100861.13;;;12.97;74.46
75775;BME280;64505;51.458;7.556;2023-05-25T07:47:17;100856.88;;;12.82;74.09
75775;BME280;64505;51.458;7.556;2023-05-25T07:49:18;100859.06;;;12.92;74.33
75775;BME280;64505;51.458;7.556;2023-05-25T07:51:20;100864.88;;;12.69;74.55
75775;BME280;64505;51.458;7.556;2023-05-25T07:53:23;100870.75;;;12.78;75.20
75775;BME280;64505;51.458;7.556;2023-05-25T07:55:25;100870.00;;;12.64;74.53
75775;BME280;64505;51.458;7.556;2023-05-25T07:57:27;100868.09;;;12.78;75.89
75775;BME280;64505;51.458;7.556;2023-05-25T07:59:29;100869.13;;;12.83;76.99
75775;BME280;64505;51.458;7.556;2023-05-25T08:01:31;100866.09;;;12.80;74.68
75775;BME280;64505;51.458;7.556;2023-05-25T08:03:33;100868.88;;;12.98;74.31
75775;BME280;64505;51.458;7.556;2023-05-25T08:05:50;100872.53;;;13.10;74.27
75775;BME280;64505;51.458;7.556;2023-05-25T08:07:52;100873.56;;;13.09;74.69
75775;BME280;64505;51.458;7.556;2023-05-25T08:09:53;100866.34;;;13.23;74.04
75775;BME280;64505;51.458;7.556;2023-05-25T08:11:55;100868.81;;;13.18;73.55
75775;BME280;64505;51.458;7.556;2023-05-25T08:14:17;100864.03;;;13.33;73.82
75775;BME280;64505;51.458;7.556;2023-05-25T08:16:19;100862.22;;;13.34;73.54
75775;BME280;64505;51.458;7.556;2023-05-25T08:18:20;100861.59;;;13.38;73.38
75775;BME280;64505;51.458;7.556;2023-05-25T08:20:22;100865.94;;;13.26;72.43
75775;BME280;64505;51.458;7.556;2023-05-25T08:22:25;100873.47;;;13.29;72.30
75775;BME280;64505;51.458;7.556;2023-05-25T08:24:27;100868.31;;;13.41;73.38
75775;BME280;64505;51.458;7.556;2023-05-25T08:26:29;100871.56;;;13.43;72.60
75775;BME280;64505;51.458;7.556;2023-05-25T08:28:51;100878.41;;;13.63;71.68
75775;BME280;64505;51.458;7.556;2023-05-25T08:30:53;100869.56;;;13.69;71.03
75775;BME280;64505;51.458;7.556;2023-05-25T08:32:54;100878.81;;;13.60;71.08
75775;BME280;64505;51.458;7.556;2023-05-25T08:34:56;100878.06;;;13.47;70.02
75775;BME280;64505;51.458;7.556;2023-05-25T08:36:58;100876.53;;;13.64;71.13
75775;BME280;64505;51.458;7.556;2023-05-25T08:38:59;100885.22;;;13.53;72.38
75775;BME280;64505;51.458;7.556;2023-05-25T08:41:03;100875.25;;;13.73;71.18
75775;BME280;64505;51.458;7.556;2023-05-25T08:43:06;100876.91;;;13.74;71.29
75775;BME280;64505;51.458;7.556;2023-05-25T08:45:07;100874.63;;;13.77;71.04
75775;BME280;64505;51.458;7.556;2023-05-25T08:47:22;100880.03;;;13.96;70.48
75775;BME280;64505;51.458;7.556;2023-05-25T08:49:25;100880.47;;;14.17;69.30
75775;BME280;64505;51.458;7.556;2023-05-25T08:51:28;100889.72;;;14.08;67.99
75775;BME280;64505;51.458;7.556;2023-05-25T08:53:40;100892.00;;;14.05;67.93
75775;BME280;64505;51.458;7.556;2023-05-25T08:55:43;100879.03;;;14.15;69.07
75775;BME280;64505;51.458;7.556;2023-05-25T08:57:53;100887.56;;;14.23;68.12
75775;BME280;64505;51.458;7.556;2023-05-25T09:00:05;100888.84;;;14.14;67.92
75775;BME280;64505;51.458;7.556;2023-05-25T09:04:21;100896.13;;;14.01;69.16
75775;BME280;64505;51.458;7.556;2023-05-25T09:06:24;100893.78;;;13.86;69.07
75775;BME280;64505;51.458;7.556;2023-05-25T09:08:27;100888.69;;;14.09;70.20
75775;BME280;64505;51.458;7.556;2023-05-25T09:10:29;100895.03;;;14.08;69.90
75775;BME280;64505;51.458;7.556;2023-05-25T09:12:35;100895.69;;;14.35;69.24
75775;BME280;64505;51.458;7.556;2023-05-25T09:14:37;100892.44;;;14.51;69.08
75775;BME280;64505;51.458;7.556;2023-05-25T09:16:46;100890.44;;;14.22;67.94
75775;BME280;64505;51.458;7.556;2023-05-25T09:18:49;100897.69;;;14.40;68.42
75775;BME280;64505;51.458;7.556;2023-05-25T09:20:50;100894.78;;;14.16;68.79
75775;BME280;64505;51.458;7.556;2023-05-25T09:22:53;100904.28;;;14.30;68.83
75775;BME280;64505;51.458;7.556;2023-05-25T09:24:55;100897.19;;;14.24;67.73
75775;BME280;64505;51.458;7.556;2023-05-25T09:26:58;100900.50;;;14.45;66.86
75775;BME280;64505;51.458;7.556;2023-05-25T09:28:59;100904.09;;;14.25;66.41
75775;BME280;64505;51.458;7.556;2023-05-25T09:31:01;100911.06;;;14.26;68.12
75775;BME280;64505;51.458;7.556;2023-05-25T09:33:12;100911.31;;;14.18;68.16
75775;BME280;64505;51.458;7.556;2023-05-25T09:35:14;100907.56;;;14.01;67.77
75775;BME280;64505;51.458;7.556;2023-05-25T09:37:16;100907.81;;;14.24;68.55
75775;BME280;64505;51.458;7.556;2023-05-25T09:39:21;100909.03;;;14.22;67.91
75775;BME280;64505;51.458;7.556;2023-05-25T09:41:24;100911.94;;;13.89;68.06
75775;BME280;64505;51.458;7.556;2023-05-25T09:43:28;100913.38;;;13.92;67.22
75775;BME280;64505;51.458;7.556;2023-05-25T09:45:43;100913.06;;;14.06;68.72
75775;BME280;64505;51.458;7.556;2023-05-25T09:47:45;100916.72;;;14.12;68.44
75775;BME280;64505;51.458;7.556;2023-05-25T09:49:47;100918.84;;;14.53;67.71
75775;BME280;64505;51.458;7.556;2023-05-25T09:51:50;100922.44;;;14.40;67.43
75775;BME280;64505;51.458;7.556;2023-05-25T09:53:52;100934.06;;;14.46;66.96
75775;BME280;64505;51.458;7.556;2023-05-25T09:55:55;100924.16;;;14.28;67.01
75775;BME280;64505;51.458;7.556;2023-05-25T09:57:56;100932.81;;;13.92;67.23
75775;BME280;64505;51.458;7.556;2023-05-25T09:59:58;100931.25;;;14.09;67.66
75775;BME280;64505;51.458;7.556;2023-05-25T10:02:00;100939.19;;;14.16;66.48
75775;BME280;64505;51.458;7.556;2023-05-25T10:04:02;100936.34;;;14.11;66.62
75775;BME280;64505;51.458;7.556;2023-05-25T10:06:06;100939.88;;;14.36;66.89
75775;BME280;64505;51.458;7.556;2023-05-25T10:08:09;100945.66;;;14.26;66.45
75775;BME280;64505;51.458;7.556;2023-05-25T10:10:12;100945.31;;;14.16;65.51
75775;BME280;64505;51.458;7.556;2023-05-25T10:12:18;100938.06;;;14.30;65.53
75775;BME280;64505;51.458;7.556;2023-05-25T10:14:25;100946.41;;;14.65;66.25
75775;BME280;64505;51.458;7.556;2023-05-25T10:16:32;100943.34;;;14.05;65.05
75775;BME280;64505;51.458;7.556;2023-05-25T10:18:37;100948.00;;;14.16;66.22
75775;BME280;64505;51.458;7.556;2023-05-25T10:20:42;100938.41;;;14.65;66.84
75775;BME280;64505;51.458;7.556;2023-05-25T10:22:53;100943.53;;;15.21;64.93
75775;BME280;64505;51.458;7.556;2023-05-25T10:27:10;100940.00;;;15.75;63.76
75775;BME280;64505;51.458;7.556;2023-05-25T10:29:28;100941.56;;;15.83;62.98
75775;BME280;64505;51.458;7.556;2023-05-25T10:31:30;100939.75;;;15.65;63.16
75775;BME280;64505;51.458;7.556;2023-05-25T10:33:34;100940.66;;;15.41;62.08
75775;BME280;64505;51.458;7.556;2023-05-25T10:35:38;100940.41;;;15.60;62.38
75775;BME280;64505;51.458;7.556;2023-05-25T10:38:00;100942.69;;;15.75;62.42
75775;BME280;64505;51.458;7.556;2023-05-25T10:40:04;100937.63;;;15.55;62.37
75775;BME280;64505;51.458;7.556;2023-05-25T10:42:08;100939.69;;;15.53;63.86
75775;BME280;64505;51.458;7.556;2023-05-25T10:44:12;100940.19;;;15.44;64.92
75775;BME280;64505;51.458;7.556;2023-05-25T10:46:14;100942.81;;;15.32;64.17
75775;BME280;64505;51.458;7.556;2023-05-25T10:48:16;100943.03;;;15.49;64.98
75775;BME280;64505;51.458;7.556;2023-05-25T10:52:29;100949.78;;;15.51;63.72
75775;BME280;64505;51.458;7.556;2023-05-25T10:54:34;100938.41;;;15.56;63.93
75775;BME280;64505;51.458;7.556;2023-05-25T10:59:12;100948.38;;;15.79;61.93